sensor_id;sensor_type;location;lat;lon;timestamp;temperature;humidity
32217;DHT22;67098;51.140;4.088;2023-07-28T00:02:10;20.80;99.90
32217;DHT22;67098;51.140;4.088;2023-07-28T00:04:36;20.80;99.90
32217;DHT22;67098;51.140;4.088;2023-07-28T00:07:05;20.80;99.90
32217;DHT22;67098;51.140;4.088;2023-07-28T00:09:31;20.80;99.90
32217;DHT22;67098;51.140;4.088;2023-07-28T00:11:58;20.90;99.90
32217;DHT22;67098;51.140;4.088;2023-07-28T00:14:24;20.90;99.90
32217;DHT22;67098;51.140;4.088;2023-07-28T00:16:55;20.70;99.90
32217;DHT22;67098;51.140;4.088;2023-07-28T00:19:21;20.70;99.90
32217;DHT22;67098;51.140;4.088;2023-07-28T00:21:51;20.70;99.90
32217;DHT22;67098;51.140;4.088;2023-07-28T00:24:17;20.80;99.90
32217;DHT22;67098;51.140;4.088;2023-07-28T00:26:44;20.70;99.90
32217;DHT22;67098;51.140;4.088;2023-07-28T00:29:10;20.70;99.90
32217;DHT22;67098;51.140;4.088;2023-07-28T00:31:36;20.70;99.90
32217;DHT22;67098;51.140;4.088;2023-07-28T00:34:02;20.70;99.90
32217;DHT22;67098;51.140;4.088;2023-07-28T00:36:28;20.60;99.90
32217;DHT22;67098;51.140;4.088;2023-07-28T00:38:54;20.60;99.90
32217;DHT22;67098;51.140;4.088;2023-07-28T00:41:20;20.70;99.90
32217;DHT22;67098;51.140;4.088;2023-07-28T00:43:45;20.70;99.90
32217;DHT22;67098;51.140;4.088;2023-07-28T00:46:12;20.70;99.90
32217;DHT22;67098;51.140;4.088;2023-07-28T00:48:39;20.70;99.90
32217;DHT22;67098;51.140;4.088;2023-07-28T00:51:07;20.60;99.90
32217;DHT22;67098;51.140;4.088;2023-07-28T00:53:33;20.60;99.90
32217;DHT22;67098;51.140;4.088;2023-07-28T00:55:58;20.60;99.90
32217;DHT22;67098;51.140;4.088;2023-07-28T00:58:24;20.60;99.90
32217;DHT22;67098;51.140;4.088;2023-07-28T01:00:50;20.70;99.90
32217;DHT22;67098;51.140;4.088;2023-07-28T01:03:18;20.70;99.90
32217;DHT22;67098;51.140;4.088;2023-07-28T01:11:02;20.60;99.90
32217;DHT22;67098;51.140;4.088;2023-07-28T01:13:28;20.60;99.90
32217;DHT22;67098;51.140;4.088;2023-07-28T01:15:54;20.70;99.90
32217;DHT22;67098;51.140;4.088;2023-07-28T01:18:20;20.60;99.90
32217;DHT22;67098;51.140;4.088;2023-07-28T01:20:46;20.60;99.90
32217;DHT22;67098;51.140;4.088;2023-07-28T01:23:41;20.60;99.90
32217;DHT22;67098;51.140;4.088;2023-07-28T01:26:11;20.60;99.90
32217;DHT22;67098;51.140;4.088;2023-07-28T01:28:39;20.60;99.90
32217;DHT22;67098;51.140;4.088;2023-07-28T01:31:06;20.70;99.90
32217;DHT22;67098;51.140;4.088;2023-07-28T01:33:32;20.80;99.90
32217;DHT22;67098;51.140;4.088;2023-07-28T01:35:58;20.80;99.90
32217;DHT22;67098;51.140;4.088;2023-07-28T01:38:30;20.80;99.90
32217;DHT22;67098;51.140;4.088;2023-07-28T01:40:55;20.80;99.90
32217;DHT22;67098;51.140;4.088;2023-07-28T01:43:21;20.80;99.90
32217;DHT22;67098;51.140;4.088;2023-07-28T01:45:47;20.80;99.90
32217;DHT22;67098;51.140;4.088;2023-07-28T01:48:13;20.80;99.90
32217;DHT22;67098;51.140;4.088;2023-07-28T01:50:38;20.80;99.90
32217;DHT22;67098;51.140;4.088;2023-07-28T01:53:05;20.80;99.90
32217;DHT22;67098;51.140;4.088;2023-07-28T01:55:31;20.80;99.90
32217;DHT22;67098;51.140;4.088;2023-07-28T01:57:59;20.90;99.90
32217;DHT22;67098;51.140;4.088;2023-07-28T02:00:25;20.80;99.90
32217;DHT22;67098;51.140;4.088;2023-07-28T02:02:52;20.90;99.90
32217;DHT22;67098;51.140;4.088;2023-07-28T02:05:20;20.90;99.90
32217;DHT22;67098;51.140;4.088;2023-07-28T02:07:46;21.00;99.90
32217;DHT22;67098;51.140;4.088;2023-07-28T02:10:12;20.90;99.90
32217;DHT22;67098;51.140;4.088;2023-07-28T02:12:38;21.00;99.90
32217;DHT22;67098;51.140;4.088;2023-07-28T02:15:08;20.90;99.90
32217;DHT22;67098;51.140;4.088;2023-07-28T02:17:33;21.10;99.90
32217;DHT22;67098;51.140;4.088;2023-07-28T02:19:59;21.00;99.90
32217;DHT22;67098;51.140;4.088;2023-07-28T02:22:26;20.90;99.90
32217;DHT22;67098;51.140;4.088;2023-07-28T02:24:52;20.90;99.90
32217;DHT22;67098;51.140;4.088;2023-07-28T02:27:18;20.90;99.90
32217;DHT22;67098;51.140;4.088;2023-07-28T02:29:43;20.90;99.90
32217;DHT22;67098;51.140;4.088;2023-07-28T02:32:10;21.00;99.90
32217;DHT22;67098;51.140;4.088;2023-07-28T02:34:36;20.90;99.90
32217;DHT22;67098;51.140;4.088;2023-07-28T02:37:02;20.90;99.90
32217;DHT22;67098;51.140;4.088;2023-07-28T02:39:28;21.00;99.90
32217;DHT22;67098;51.140;4.088;2023-07-28T02:41:54;21.00;99.90
32217;DHT22;67098;51.140;4.088;2023-07-28T02:44:20;20.90;99.90
32217;DHT22;67098;51.140;4.088;2023-07-28T02:46:45;20.80;99.90
32217;DHT22;67098;51.140;4.088;2023-07-28T02:49:11;20.80;99.90
32217;DHT22;67098;51.140;4.088;2023-07-28T02:51:37;20.70;99.90
32217;DHT22;67098;51.140;4.088;2023-07-28T02:54:02;20.80;99.90
32217;DHT22;67098;51.140;4.088;2023-07-28T02:56:29;20.80;99.90
32217;DHT22;67098;51.140;4.088;2023-07-28T02:58:55;20.80;99.90
32217;DHT22;67098;51.140;4.088;2023-07-28T03:01:20;20.80;99.90
32217;DHT22;67098;51.140;4.088;2023-07-28T03:03:46;20.80;99.90
32217;DHT22;67098;51.140;4.088;2023-07-28T03:06:13;20.90;99.90
32217;DHT22;67098;51.140;4.088;2023-07-28T03:08:38;20.90;99.90
32217;DHT22;67098;51.140;4.088;2023-07-28T03:11:04;20.90;99.90
32217;DHT22;67098;51.140;4.088;2023-07-28T03:13:30;20.80;99.90
32217;DHT22;67098;51.140;4.088;2023-07-28T03:15:56;20.80;99.90
32217;DHT22;67098;51.140;4.088;2023-07-28T03:18:21;20.80;99.90
32217;DHT22;67098;51.140;4.088;2023-07-28T03:20:47;20.80;99.90
32217;DHT22;67098;51.140;4.088;2023-07-28T03:23:13;20.90;99.90
32217;DHT22;67098;51.140;4.088;2023-07-28T03:25:39;21.00;99.90
32217;DHT22;67098;51.140;4.088;2023-07-28T03:28:05;21.00;99.90
32217;DHT22;67098;51.140;4.088;2023-07-28T03:30:30;21.00;99.90
32217;DHT22;67098;51.140;4.088;2023-07-28T03:32:56;21.00;99.90
32217;DHT22;67098;51.140;4.088;2023-07-28T03:35:22;21.00;99.90
32217;DHT22;67098;51.140;4.088;2023-07-28T03:37:48;20.90;99.90
32217;DHT22;67098;51.140;4.088;2023-07-28T03:40:14;20.90;99.90
32217;DHT22;67098;51.140;4.088;2023-07-28T03:42:39;20.80;99.90
32217;DHT22;67098;51.140;4.088;2023-07-28T03:45:06;20.90;99.90
32217;DHT22;67098;51.140;4.088;2023-07-28T03:47:32;20.90;99.90
32217;DHT22;67098;51.140;4.088;2023-07-28T03:49:58;21.00;99.90
32217;DHT22;67098;51.140;4.088;2023-07-28T03:52:23;20.90;99.90
32217;DHT22;67098;51.140;4.088;2023-07-28T03:54:49;20.90;99.90
32217;DHT22;67098;51.140;4.088;2023-07-28T03:57:15;20.90;99.90
32217;DHT22;67098;51.140;4.088;2023-07-28T03:59:40;20.80;99.90
32217;DHT22;67098;51.140;4.088;2023-07-28T04:02:06;20.90;99.90
32217;DHT22;67098;51.140;4.088;2023-07-28T04:04:32;21.00;99.90
32217;DHT22;67098;51.140;4.088;2023-07-28T04:06:58;20.90;99.90
32217;DHT22;67098;51.140;4.088;2023-07-28T04:09:24;20.90;99.90
32217;DHT22;67098;51.140;4.088;2023-07-28T04:11:50;20.90;99.90
32217;DHT22;67098;51.140;4.088;2023-07-28T04:14:15;20.80;99.90
32217;DHT22;67098;51.140;4.088;2023-07-28T04:16:41;21.00;99.90
32217;DHT22;67098;51.140;4.088;2023-07-28T04:19:07;20.90;99.90
32217;DHT22;67098;51.140;4.088;2023-07-28T04:21:33;20.90;99.90
32217;DHT22;67098;51.140;4.088;2023-07-28T04:23:58;20.90;99.90
32217;DHT22;67098;51.140;4.088;2023-07-28T04:26:24;20.90;99.90
32217;DHT22;67098;51.140;4.088;2023-07-28T04:28:50;20.90;99.90
32217;DHT22;67098;51.140;4.088;2023-07-28T04:31:16;20.90;99.90
32217;DHT22;67098;51.140;4.088;2023-07-28T04:33:42;20.90;99.90
32217;DHT22;67098;51.140;4.088;2023-07-28T04:36:08;21.00;99.90
32217;DHT22;67098;51.140;4.088;2023-07-28T04:38:34;21.00;99.90
32217;DHT22;67098;51.140;4.088;2023-07-28T04:41:00;21.00;99.90
32217;DHT22;67098;51.140;4.088;2023-07-28T04:43:26;20.90;99.90
32217;DHT22;67098;51.140;4.088;2023-07-28T04:45:51;21.00;99.90
32217;DHT22;67098;51.140;4.088;2023-07-28T04:48:17;21.00;99.90
32217;DHT22;67098;51.140;4.088;2023-07-28T04:50:43;21.10;99.90
32217;DHT22;67098;51.140;4.088;2023-07-28T04:53:09;21.10;99.90
32217;DHT22;67098;51.140;4.088;2023-07-28T04:55:35;21.10;99.90
32217;DHT22;67098;51.140;4.088;2023-07-28T04:58:00;21.10;99.90
32217;DHT22;67098;51.140;4.088;2023-07-28T05:00:26;21.10;99.90
32217;DHT22;67098;51.140;4.088;2023-07-28T05:02:52;21.10;99.90
32217;DHT22;67098;51.140;4.088;2023-07-28T05:05:18;21.10;99.90
32217;DHT22;67098;51.140;4.088;2023-07-28T05:07:43;21.00;99.90
32217;DHT22;67098;51.140;4.088;2023-07-28T05:10:09;21.00;99.90
32217;DHT22;67098;51.140;4.088;2023-07-28T05:12:35;21.10;99.90
32217;DHT22;67098;51.140;4.088;2023-07-28T05:15:01;21.10;99.90
32217;DHT22;67098;51.140;4.088;2023-07-28T05:17:26;21.10;99.90
32217;DHT22;67098;51.140;4.088;2023-07-28T05:19:52;21.20;99.90
32217;DHT22;67098;51.140;4.088;2023-07-28T05:22:18;21.30;99.90
32217;DHT22;67098;51.140;4.088;2023-07-28T05:24:44;21.30;99.90
32217;DHT22;67098;51.140;4.088;2023-07-28T05:27:11;21.30;99.90
32217;DHT22;67098;51.140;4.088;2023-07-28T05:29:37;21.30;99.90
32217;DHT22;67098;51.140;4.088;2023-07-28T05:32:02;21.40;99.90
32217;DHT22;67098;51.140;4.088;2023-07-28T05:34:29;21.30;99.90
32217;DHT22;67098;51.140;4.088;2023-07-28T05:36:55;21.40;99.90
32217;DHT22;67098;51.140;4.088;2023-07-28T05:39:21;21.30;99.90
32217;DHT22;67098;51.140;4.088;2023-07-28T05:41:47;21.40;99.90
32217;DHT22;67098;51.140;4.088;2023-07-28T05:44:12;21.40;99.90
32217;DHT22;67098;51.140;4.088;2023-07-28T05:46:38;21.40;99.90
32217;DHT22;67098;51.140;4.088;2023-07-28T05:49:05;21.50;99.90
32217;DHT22;67098;51.140;4.088;2023-07-28T05:51:31;21.50;99.90
32217;DHT22;67098;51.140;4.088;2023-07-28T05:53:57;21.50;99.90
32217;DHT22;67098;51.140;4.088;2023-07-28T05:56:23;21.60;99.90
32217;DHT22;67098;51.140;4.088;2023-07-28T05:58:49;21.60;99.90
32217;DHT22;67098;51.140;4.088;2023-07-28T06:01:15;21.70;99.90
32217;DHT22;67098;51.140;4.088;2023-07-28T06:03:41;21.60;99.90
32217;DHT22;67098;51.140;4.088;2023-07-28T06:06:07;21.70;99.90
32217;DHT22;67098;51.140;4.088;2023-07-28T06:08:33;21.70;99.90
32217;DHT22;67098;51.140;4.088;2023-07-28T06:10:59;21.70;99.90
32217;DHT22;67098;51.140;4.088;2023-07-28T06:13:25;21.80;99.90
32217;DHT22;67098;51.140;4.088;2023-07-28T06:15:53;21.90;99.90
32217;DHT22;67098;51.140;4.088;2023-07-28T06:18:19;21.90;99.90
32217;DHT22;67098;51.140;4.088;2023-07-28T06:20:47;21.90;99.90
32217;DHT22;67098;51.140;4.088;2023-07-28T06:23:13;22.10;99.90
32217;DHT22;67098;51.140;4.088;2023-07-28T06:25:39;22.20;99.80
32217;DHT22;67098;51.140;4.088;2023-07-28T06:28:09;22.30;99.40
32217;DHT22;67098;51.140;4.088;2023-07-28T06:30:36;22.40;99.10
32217;DHT22;67098;51.140;4.088;2023-07-28T06:33:11;22.50;99.10
32217;DHT22;67098;51.140;4.088;2023-07-28T06:35:37;22.40;99.00
32217;DHT22;67098;51.140;4.088;2023-07-28T06:38:03;22.30;98.90
32217;DHT22;67098;51.140;4.088;2023-07-28T06:40:29;22.30;98.90
32217;DHT22;67098;51.140;4.088;2023-07-28T06:42:55;22.20;99.00
32217;DHT22;67098;51.140;4.088;2023-07-28T06:45:21;22.10;99.50
32217;DHT22;67098;51.140;4.088;2023-07-28T06:47:47;22.20;99.20
32217;DHT22;67098;51.140;4.088;2023-07-28T06:50:12;22.30;99.00
32217;DHT22;67098;51.140;4.088;2023-07-28T06:52:39;22.40;98.70
32217;DHT22;67098;51.140;4.088;2023-07-28T06:55:05;22.60;98.70
32217;DHT22;67098;51.140;4.088;2023-07-28T06:57:31;22.60;98.30
32217;DHT22;67098;51.140;4.088;2023-07-28T06:59:56;22.50;98.20
32217;DHT22;67098;51.140;4.088;2023-07-28T07:02:22;22.50;98.10
32217;DHT22;67098;51.140;4.088;2023-07-28T07:04:48;22.50;98.20
32217;DHT22;67098;51.140;4.088;2023-07-28T07:07:14;22.50;98.40
32217;DHT22;67098;51.140;4.088;2023-07-28T07:09:40;22.60;98.20
32217;DHT22;67098;51.140;4.088;2023-07-28T07:12:08;22.70;98.20
32217;DHT22;67098;51.140;4.088;2023-07-28T07:14:34;22.80;97.90
32217;DHT22;67098;51.140;4.088;2023-07-28T07:16:59;22.80;97.60
32217;DHT22;67098;51.140;4.088;2023-07-28T07:19:27;22.90;97.50
32217;DHT22;67098;51.140;4.088;2023-07-28T07:21:53;22.70;97.40
32217;DHT22;67098;51.140;4.088;2023-07-28T07:24:19;22.70;97.80
32217;DHT22;67098;51.140;4.088;2023-07-28T07:26:44;22.70;97.60
32217;DHT22;67098;51.140;4.088;2023-07-28T07:29:10;22.70;97.50
32217;DHT22;67098;51.140;4.088;2023-07-28T07:31:36;22.80;97.50
32217;DHT22;67098;51.140;4.088;2023-07-28T07:34:02;22.90;97.40
32217;DHT22;67098;51.140;4.088;2023-07-28T07:36:30;23.00;97.40
32217;DHT22;67098;51.140;4.088;2023-07-28T07:38:56;23.00;97.10
32217;DHT22;67098;51.140;4.088;2023-07-28T07:41:22;23.10;97.00
32217;DHT22;67098;51.140;4.088;2023-07-28T07:43:51;23.10;97.00
32217;DHT22;67098;51.140;4.088;2023-07-28T07:46:18;23.10;97.10
32217;DHT22;67098;51.140;4.088;2023-07-28T07:48:45;23.00;96.90
32217;DHT22;67098;51.140;4.088;2023-07-28T07:51:12;23.10;96.90
32217;DHT22;67098;51.140;4.088;2023-07-28T07:53:38;23.10;96.90
32217;DHT22;67098;51.140;4.088;2023-07-28T07:56:06;23.10;97.00
32217;DHT22;67098;51.140;4.088;2023-07-28T07:58:32;23.10;97.10
32217;DHT22;67098;51.140;4.088;2023-07-28T08:00:58;23.10;97.10
32217;DHT22;67098;51.140;4.088;2023-07-28T08:03:24;23.20;96.60
32217;DHT22;67098;51.140;4.088;2023-07-28T08:05:53;23.30;96.90
32217;DHT22;67098;51.140;4.088;2023-07-28T08:08:19;23.50;96.90
32217;DHT22;67098;51.140;4.088;2023-07-28T08:10:51;23.80;96.50
32217;DHT22;67098;51.140;4.088;2023-07-28T08:13:17;24.10;96.00
32217;DHT22;67098;51.140;4.088;2023-07-28T08:15:44;24.30;95.60
32217;DHT22;67098;51.140;4.088;2023-07-28T08:18:12;24.40;95.10
32217;DHT22;67098;51.140;4.088;2023-07-28T08:20:38;24.50;94.60
32217;DHT22;67098;51.140;4.088;2023-07-28T08:23:04;24.60;94.20
32217;DHT22;67098;51.140;4.088;2023-07-28T08:25:29;24.70;94.20
32217;DHT22;67098;51.140;4.088;2023-07-28T08:27:55;24.90;94.00
32217;DHT22;67098;51.140;4.088;2023-07-28T08:30:21;24.90;93.70
32217;DHT22;67098;51.140;4.088;2023-07-28T08:32:47;24.90;93.20
32217;DHT22;67098;51.140;4.088;2023-07-28T08:35:12;24.90;93.30
32217;DHT22;67098;51.140;4.088;2023-07-28T08:37:38;25.00;93.30
32217;DHT22;67098;51.140;4.088;2023-07-28T08:40:05;25.10;93.40
32217;DHT22;67098;51.140;4.088;2023-07-28T08:42:36;25.00;93.30
32217;DHT22;67098;51.140;4.088;2023-07-28T08:45:06;25.10;93.10
32217;DHT22;67098;51.140;4.088;2023-07-28T08:47:34;25.10;93.00
32217;DHT22;67098;51.140;4.088;2023-07-28T08:50:00;25.20;93.00
32217;DHT22;67098;51.140;4.088;2023-07-28T08:52:27;25.20;92.70
32217;DHT22;67098;51.140;4.088;2023-07-28T08:54:53;25.30;92.60
32217;DHT22;67098;51.140;4.088;2023-07-28T08:57:19;25.40;92.30
32217;DHT22;67098;51.140;4.088;2023-07-28T08:59:47;25.60;92.00
32217;DHT22;67098;51.140;4.088;2023-07-28T09:02:17;26.00;91.80
32217;DHT22;67098;51.140;4.088;2023-07-28T09:04:44;26.30;91.10
32217;DHT22;67098;51.140;4.088;2023-07-28T09:07:10;26.50;90.70
32217;DHT22;67098;51.140;4.088;2023-07-28T09:09:36;26.60;90.40
32217;DHT22;67098;51.140;4.088;2023-07-28T09:12:03;26.50;90.30
32217;DHT22;67098;51.140;4.088;2023-07-28T09:14:35;26.30;90.30
32217;DHT22;67098;51.140;4.088;2023-07-28T09:17:12;26.10;90.50
32217;DHT22;67098;51.140;4.088;2023-07-28T09:19:51;25.90;90.70
32217;DHT22;67098;51.140;4.088;2023-07-28T09:22:17;25.90;91.00
32217;DHT22;67098;51.140;4.088;2023-07-28T09:24:43;26.00;90.90
32217;DHT22;67098;51.140;4.088;2023-07-28T09:27:23;26.00;91.10
32217;DHT22;67098;51.140;4.088;2023-07-28T09:29:53;26.10;90.60
32217;DHT22;67098;51.140;4.088;2023-07-28T09:32:28;26.10;90.50
32217;DHT22;67098;51.140;4.088;2023-07-28T09:37:37;26.70;90.40
32217;DHT22;67098;51.140;4.088;2023-07-28T09:40:05;27.20;90.00
32217;DHT22;67098;51.140;4.088;2023-07-28T09:42:32;27.40;88.60
32217;DHT22;67098;51.140;4.088;2023-07-28T09:44:59;27.40;88.10
32217;DHT22;67098;51.140;4.088;2023-07-28T09:47:24;27.40;87.10
32217;DHT22;67098;51.140;4.088;2023-07-28T09:49:50;27.50;86.50
32217;DHT22;67098;51.140;4.088;2023-07-28T09:52:18;27.60;87.00
32217;DHT22;67098;51.140;4.088;2023-07-28T09:54:48;27.50;86.30
32217;DHT22;67098;51.140;4.088;2023-07-28T09:57:20;27.40;86.90
32217;DHT22;67098;51.140;4.088;2023-07-28T09:59:47;27.20;86.80
32217;DHT22;67098;51.140;4.088;2023-07-28T10:02:14;27.00;87.30
32217;DHT22;67098;51.140;4.088;2023-07-28T10:04:41;26.90;87.80
32217;DHT22;67098;51.140;4.088;2023-07-28T10:07:07;26.80;88.10
32217;DHT22;67098;51.140;4.088;2023-07-28T10:09:33;26.60;88.30
32217;DHT22;67098;51.140;4.088;2023-07-28T10:12:00;26.60;88.60
32217;DHT22;67098;51.140;4.088;2023-07-28T10:14:31;26.80;88.20
32217;DHT22;67098;51.140;4.088;2023-07-28T10:16:58;27.20;87.60
32217;DHT22;67098;51.140;4.088;2023-07-28T10:19:27;27.40;86.30
32217;DHT22;67098;51.140;4.088;2023-07-28T10:22:07;27.40;85.80
32217;DHT22;67098;51.140;4.088;2023-07-28T10:24:56;27.40;86.50
32217;DHT22;67098;51.140;4.088;2023-07-28T10:30:01;28.20;85.90
32217;DHT22;67098;51.140;4.088;2023-07-28T10:32:41;28.60;83.70
32217;DHT22;67098;51.140;4.088;2023-07-28T10:37:46;28.40;82.90
32217;DHT22;67098;51.140;4.088;2023-07-28T10:40:31;28.40;82.90
32217;DHT22;67098;51.140;4.088;2023-07-28T10:43:00;28.40;83.10
32217;DHT22;67098;51.140;4.088;2023-07-28T10:45:28;28.30;82.60
32217;DHT22;67098;51.140;4.088;2023-07-28T10:47:55;28.00;83.10
32217;DHT22;67098;51.140;4.088;2023-07-28T10:50:22;27.80;83.10
32217;DHT22;67098;51.140;4.088;2023-07-28T10:52:48;27.60;84.10
32217;DHT22;67098;51.140;4.088;2023-07-28T10:55:19;27.50;83.90
32217;DHT22;67098;51.140;4.088;2023-07-28T10:57:46;27.50;84.10
32217;DHT22;67098;51.140;4.088;2023-07-28T11:00:15;27.50;84.20
32217;DHT22;67098;51.140;4.088;2023-07-28T11:02:45;27.70;83.90
32217;DHT22;67098;51.140;4.088;2023-07-28T11:05:13;27.50;84.10
32217;DHT22;67098;51.140;4.088;2023-07-28T11:07:43;27.10;83.60
32217;DHT22;67098;51.140;4.088;2023-07-28T11:10:10;26.90;84.00
32217;DHT22;67098;51.140;4.088;2023-07-28T11:12:41;27.30;84.50
32217;DHT22;67098;51.140;4.088;2023-07-28T11:15:12;27.60;83.60
32217;DHT22;67098;51.140;4.088;2023-07-28T11:17:38;27.70;83.10
32217;DHT22;67098;51.140;4.088;2023-07-28T11:22:41;27.90;82.10
32217;DHT22;67098;51.140;4.088;2023-07-28T11:25:07;27.90;82.30
32217;DHT22;67098;51.140;4.088;2023-07-28T11:27:36;27.70;83.90
32217;DHT22;67098;51.140;4.088;2023-07-28T11:30:02;27.60;83.90
32217;DHT22;67098;51.140;4.088;2023-07-28T11:32:31;27.70;84.20
32217;DHT22;67098;51.140;4.088;2023-07-28T11:35:04;27.60;84.20
32217;DHT22;67098;51.140;4.088;2023-07-28T11:37:31;27.50;84.20
32217;DHT22;67098;51.140;4.088;2023-07-28T11:39:59;27.50;84.10
32217;DHT22;67098;51.140;4.088;2023-07-28T11:42:29;27.20;83.50
32217;DHT22;67098;51.140;4.088;2023-07-28T11:44:55;27.00;83.90
32217;DHT22;67098;51.140;4.088;2023-07-28T11:47:21;26.80;84.80
32217;DHT22;67098;51.140;4.088;2023-07-28T11:49:48;26.90;85.40
32217;DHT22;67098;51.140;4.088;2023-07-28T11:52:14;26.90;84.60
32217;DHT22;67098;51.140;4.088;2023-07-28T11:54:41;26.80;84.90
32217;DHT22;67098;51.140;4.088;2023-07-28T11:57:07;26.60;85.20
32217;DHT22;67098;51.140;4.088;2023-07-28T11:59:34;26.80;85.70
32217;DHT22;67098;51.140;4.088;2023-07-28T12:02:04;27.20;84.30
32217;DHT22;67098;51.140;4.088;2023-07-28T12:04:40;27.40;83.50
32217;DHT22;67098;51.140;4.088;2023-07-28T12:07:17;27.50;83.00
32217;DHT22;67098;51.140;4.088;2023-07-28T12:12:12;27.80;82.70
32217;DHT22;67098;51.140;4.088;2023-07-28T12:14:38;27.90;81.70
32217;DHT22;67098;51.140;4.088;2023-07-28T12:17:16;27.90;81.50
32217;DHT22;67098;51.140;4.088;2023-07-28T12:20:00;27.80;82.10
32217;DHT22;67098;51.140;4.088;2023-07-28T12:22:27;27.60;81.80
32217;DHT22;67098;51.140;4.088;2023-07-28T12:24:53;27.60;82.40
32217;DHT22;67098;51.140;4.088;2023-07-28T12:27:20;27.50;82.80
32217;DHT22;67098;51.140;4.088;2023-07-28T12:29:49;27.40;83.00
32217;DHT22;67098;51.140;4.088;2023-07-28T12:32:15;27.40;83.30
32217;DHT22;67098;51.140;4.088;2023-07-28T12:34:41;27.50;82.80
32217;DHT22;67098;51.140;4.088;2023-07-28T12:37:07;27.50;83.30
32217;DHT22;67098;51.140;4.088;2023-07-28T12:39:37;27.30;82.90
32217;DHT22;67098;51.140;4.088;2023-07-28T12:42:06;27.20;83.10
32217;DHT22;67098;51.140;4.088;2023-07-28T12:44:32;27.30;82.70
32217;DHT22;67098;51.140;4.088;2023-07-28T12:46:58;27.70;82.80
32217;DHT22;67098;51.140;4.088;2023-07-28T12:49:23;27.80;81.50
32217;DHT22;67098;51.140;4.088;2023-07-28T12:51:49;27.80;81.10
32217;DHT22;67098;51.140;4.088;2023-07-28T12:54:15;27.60;81.20
32217;DHT22;67098;51.140;4.088;2023-07-28T12:56:41;27.30;81.80
32217;DHT22;67098;51.140;4.088;2023-07-28T12:59:07;27.10;83.10
32217;DHT22;67098;51.140;4.088;2023-07-28T13:01:33;26.80;84.60
32217;DHT22;67098;51.140;4.088;2023-07-28T13:03:59;27.00;84.20
32217;DHT22;67098;51.140;4.088;2023-07-28T13:06:25;27.60;83.40
32217;DHT22;67098;51.140;4.088;2023-07-28T13:08:51;28.30;82.80
32217;DHT22;67098;51.140;4.088;2023-07-28T13:11:16;29.20;81.20
32217;DHT22;67098;51.140;4.088;2023-07-28T13:13:42;30.00;76.90
32217;DHT22;67098;51.140;4.088;2023-07-28T13:16:08;30.60;75.80
32217;DHT22;67098;51.140;4.088;2023-07-28T13:18:34;31.20;73.60
32217;DHT22;67098;51.140;4.088;2023-07-28T13:20:59;32.30;71.90
32217;DHT22;67098;51.140;4.088;2023-07-28T13:23:25;32.80;67.90
32217;DHT22;67098;51.140;4.088;2023-07-28T13:25:51;32.70;66.10
32217;DHT22;67098;51.140;4.088;2023-07-28T13:28:18;32.00;66.40
32217;DHT22;67098;51.140;4.088;2023-07-28T13:30:44;31.10;67.90
32217;DHT22;67098;51.140;4.088;2023-07-28T13:33:09;30.20;69.90
32217;DHT22;67098;51.140;4.088;2023-07-28T13:35:35;29.70;71.70
32217;DHT22;67098;51.140;4.088;2023-07-28T13:38:01;29.50;72.20
32217;DHT22;67098;51.140;4.088;2023-07-28T13:40:26;29.40;72.80
32217;DHT22;67098;51.140;4.088;2023-07-28T13:42:52;29.30;73.20
32217;DHT22;67098;51.140;4.088;2023-07-28T13:45:18;29.30;73.50
32217;DHT22;67098;51.140;4.088;2023-07-28T13:47:44;29.00;74.50
32217;DHT22;67098;51.140;4.088;2023-07-28T13:50:10;28.70;74.00
32217;DHT22;67098;51.140;4.088;2023-07-28T13:52:35;28.40;75.10
32217;DHT22;67098;51.140;4.088;2023-07-28T13:55:01;28.20;76.30
32217;DHT22;67098;51.140;4.088;2023-07-28T13:57:28;28.10;77.00
32217;DHT22;67098;51.140;4.088;2023-07-28T13:59:53;28.20;77.10
32217;DHT22;67098;51.140;4.088;2023-07-28T14:02:19;28.30;77.20
32217;DHT22;67098;51.140;4.088;2023-07-28T14:04:45;28.40;76.20
32217;DHT22;67098;51.140;4.088;2023-07-28T14:07:11;28.50;76.00
32217;DHT22;67098;51.140;4.088;2023-07-28T14:09:36;28.60;75.70
32217;DHT22;67098;51.140;4.088;2023-07-28T14:12:03;28.80;75.10
32217;DHT22;67098;51.140;4.088;2023-07-28T14:14:29;28.90;74.60
32217;DHT22;67098;51.140;4.088;2023-07-28T14:16:55;29.00;74.30
32217;DHT22;67098;51.140;4.088;2023-07-28T14:19:21;29.20;74.00
32217;DHT22;67098;51.140;4.088;2023-07-28T14:21:46;29.20;72.60
32217;DHT22;67098;51.140;4.088;2023-07-28T14:24:12;29.10;72.90
32217;DHT22;67098;51.140;4.088;2023-07-28T14:26:38;29.00;73.40
32217;DHT22;67098;51.140;4.088;2023-07-28T14:29:04;29.10;74.20
32217;DHT22;67098;51.140;4.088;2023-07-28T14:31:29;29.30;73.40
32217;DHT22;67098;51.140;4.088;2023-07-28T14:33:55;30.00;72.40
32217;DHT22;67098;51.140;4.088;2023-07-28T14:36:21;30.30;71.90
32217;DHT22;67098;51.140;4.088;2023-07-28T14:38:47;30.40;70.30
32217;DHT22;67098;51.140;4.088;2023-07-28T14:41:12;30.30;70.50
32217;DHT22;67098;51.140;4.088;2023-07-28T14:43:38;30.30;70.60
32217;DHT22;67098;51.140;4.088;2023-07-28T14:46:04;30.40;70.20
32217;DHT22;67098;51.140;4.088;2023-07-28T14:48:30;30.60;69.90
32217;DHT22;67098;51.140;4.088;2023-07-28T14:50:55;30.70;69.50
32217;DHT22;67098;51.140;4.088;2023-07-28T14:55:54;32.10;68.00
32217;DHT22;67098;51.140;4.088;2023-07-28T14:58:20;32.70;66.40
32217;DHT22;67098;51.140;4.088;2023-07-28T15:00:46;33.10;65.60
32217;DHT22;67098;51.140;4.088;2023-07-28T15:03:12;33.70;64.40
32217;DHT22;67098;51.140;4.088;2023-07-28T15:05:38;34.00;62.80
32217;DHT22;67098;51.140;4.088;2023-07-28T15:08:03;33.90;62.40
32217;DHT22;67098;51.140;4.088;2023-07-28T15:10:29;33.40;62.50
32217;DHT22;67098;51.140;4.088;2023-07-28T15:12:55;33.40;62.80
32217;DHT22;67098;51.140;4.088;2023-07-28T15:15:20;33.20;63.00
32217;DHT22;67098;51.140;4.088;2023-07-28T15:17:46;33.20;63.20
32217;DHT22;67098;51.140;4.088;2023-07-28T15:20:12;32.90;63.50
32217;DHT22;67098;51.140;4.088;2023-07-28T15:22:37;32.30;64.30
32217;DHT22;67098;51.140;4.088;2023-07-28T15:25:04;32.00;64.60
32217;DHT22;67098;51.140;4.088;2023-07-28T15:27:29;32.00;65.00
32217;DHT22;67098;51.140;4.088;2023-07-28T15:29:55;32.20;64.30
32217;DHT22;67098;51.140;4.088;2023-07-28T15:32:21;32.40;64.40
32217;DHT22;67098;51.140;4.088;2023-07-28T15:34:46;32.80;64.70
32217;DHT22;67098;51.140;4.088;2023-07-28T15:37:12;32.90;63.70
32217;DHT22;67098;51.140;4.088;2023-07-28T15:39:38;33.10;62.50
32217;DHT22;67098;51.140;4.088;2023-07-28T15:42:04;33.40;62.70
32217;DHT22;67098;51.140;4.088;2023-07-28T15:44:30;33.70;61.80
32217;DHT22;67098;51.140;4.088;2023-07-28T15:46:55;33.90;61.20
32217;DHT22;67098;51.140;4.088;2023-07-28T15:49:21;34.10;60.60